Time;durP1;ratioP1;P1;durP2;ratioP2;P2;SDS_P1;SDS_P2;PMS_P1;PMS_P2;Temp;Humidity;BMP_temperature;BMP_pressure;BME280_temperature;BME280_humidity;BME280_pressure;Samples;Min_cycle;Max_cycle;Signal;HPM_P1;HPM_P2
2022/06/14 00:01:56;;;;;;;3.13;3.03;;;;;;;10.26;100.00;102392.69;5227104;28;20021;-62
2022/06/14 00:04:26;;;;;;;5.95;4.47;;;;;;;10.24;100.00;102397.50;5225430;28;20447;-62
2022/06/14 00:06:57;;;;;;;6.32;4.97;;;;;;;10.18;100.00;102395.63;5226918;28;20158;-61
2022/06/14 00:09:28;;;;;;;4.25;3.90;;;;;;;10.15;100.00;102403.09;5225310;28;20114;-63
2022/06/14 00:12:00;;;;;;;7.63;4.78;;;;;;;10.11;100.00;102399.16;5227370;28;20495;-62
2022/06/14 00:14:31;;;;;;;5.43;5.13;;;;;;;9.58;100.00;102314.94;5225271;28;20033;-62
2022/06/14 00:17:01;;;;;;;7.53;5.15;;;;;;;10.10;100.00;102418.31;5227753;28;20031;-63
2022/06/14 00:19:32;;;;;;;6.40;4.90;;;;;;;9.85;100.00;102360.69;5225397;28;20120;-62
2022/06/14 00:22:03;;;;;;;8.05;7.25;;;;;;;10.15;100.00;102402.28;5227252;28;20029;-62
2022/06/14 00:24:34;;;;;;;4.63;4.43;;;;;;;10.15;100.00;102391.47;5225117;28;20032;-63
2022/06/14 00:27:05;;;;;;;5.25;4.57;;;;;;;10.16;100.00;102402.06;5228169;28;20028;-64
2022/06/14 00:29:35;;;;;;;5.90;5.40;;;;;;;10.11;100.00;102398.34;5247337;28;20078;-63
2022/06/14 00:32:06;;;;;;;8.65;4.88;;;;;;;10.05;100.00;102396.53;5227382;28;20039;-63
2022/06/14 00:34:36;;;;;;;4.80;4.35;;;;;;;10.01;100.00;102396.13;5224768;28;20028;-62
2022/06/14 00:37:14;;;;;;;5.65;5.15;;;;;;;9.97;100.00;102388.66;5228448;28;20035;-61
2022/06/14 00:39:45;;;;;;;4.85;4.55;;;;;;;9.95;100.00;102386.19;5246561;28;20044;-62
2022/06/14 00:42:19;;;;;;;5.32;4.70;;;;;;;9.97;100.00;102403.00;5247165;28;20026;-61
2022/06/14 00:45:26;;;;;;;9.43;5.72;;;;;;;9.93;100.00;102385.56;5225370;28;20107;-63
2022/06/14 00:48:03;;;;;;;5.93;4.60;;;;;;;9.90;100.00;102387.88;5226353;28;20034;-61
2022/06/14 00:50:44;;;;;;;6.20;5.75;;;;;;;9.84;100.00;102394.94;5225062;28;20028;-62
2022/06/14 00:53:22;;;;;;;13.85;4.85;;;;;;;9.68;100.00;102384.63;5228729;28;20119;-61
2022/06/14 00:56:00;;;;;;;5.70;5.20;;;;;;;9.55;100.00;102373.88;5229111;28;20028;-61
2022/06/14 00:59:09;;;;;;;7.03;6.40;;;;;;;9.55;100.00;102380.09;5224760;28;20036;-62
2022/06/14 01:01:43;;;;;;;4.60;4.40;;;;;;;9.34;100.00;102354.22;5182603;28;20044;-61
2022/06/14 01:04:19;;;;;;;6.65;6.05;;;;;;;9.46;100.00;102384.09;5182661;28;20032;-63
2022/06/14 01:06:53;;;;;;;6.50;4.97;;;;;;;9.40;100.00;102372.28;5201006;28;20113;-63
2022/06/14 01:09:38;;;;;;;5.25;4.90;;;;;;;9.32;100.00;102368.97;5228850;28;20037;-63
2022/06/14 01:12:31;;;;;;;6.93;6.20;;;;;;;9.06;100.00;102346.41;5262929;23;20130;-89
2022/06/14 01:15:25;;;;;;;6.60;6.30;;;;;;;9.16;100.00;102375.63;5301449;28;20374;-88
2022/06/14 01:18:10;;;;;;;5.50;5.05;;;;;;;8.98;100.00;102357.41;5283671;28;20031;-88
2022/06/14 01:20:41;;;;;;;6.13;5.72;;;;;;;9.01;100.00;102385.78;5287378;27;20051;-87
2022/06/14 01:23:16;;;;;;;7.95;5.35;;;;;;;8.96;100.00;102372.09;5262851;22;20049;-63
2022/06/14 01:25:54;;;;;;;6.55;5.93;;;;;;;8.94;100.00;102364.25;5248875;28;20036;-66
2022/06/14 01:28:26;;;;;;;4.95;4.63;;;;;;;8.91;100.00;102366.53;5248407;28;20441;-63
2022/06/14 01:30:57;;;;;;;8.13;6.03;;;;;;;8.82;100.00;102355.13;5248565;28;20029;-66
2022/06/14 01:33:38;;;;;;;6.43;6.03;;;;;;;8.87;100.00;102354.53;5248371;28;20024;-65
2022/06/14 01:36:15;;;;;;;6.30;5.97;;;;;;;8.83;100.00;102356.81;5249550;28;20024;-65
2022/06/14 01:38:48;;;;;;;6.63;5.97;;;;;;;8.79;100.00;102350.16;5249743;28;20052;-63
2022/06/14 01:41:40;;;;;;;13.32;6.30;;;;;;;8.79;100.00;102348.31;5248414;28;20032;-64
2022/06/14 01:44:43;;;;;;;6.20;5.75;;;;;;;8.79;100.00;102347.47;5247887;28;20476;-68
2022/06/14 01:47:30;;;;;;;6.93;6.60;;;;;;;8.59;100.00;102317.84;5223226;28;20051;-64
2022/06/14 01:53:21;;;;;;;7.25;5.07;;;;;;;8.77;100.00;102347.69;5249223;28;20035;-63
2022/06/14 01:56:10;;;;;;;6.85;6.25;;;;;;;8.75;100.00;102346.22;5248225;28;20028;-65
2022/06/14 01:58:51;;;;;;;9.40;6.05;;;;;;;8.70;100.00;102335.25;5247999;28;20045;-63
2022/06/14 02:01:28;;;;;;;6.65;6.25;;;;;;;8.68;100.00;102337.31;5247946;28;20400;-66
2022/06/14 02:07:24;;;;;;;6.40;5.80;;;;;;;8.63;100.00;102332.56;5249352;28;20094;-64
2022/06/14 02:10:12;;;;;;;6.45;6.07;;;;;;;8.50;100.00;102321.78;5247621;28;20070;-64
2022/06/14 02:12:49;;;;;;;6.88;6.20;;;;;;;8.53;100.00;102332.16;5248135;28;20028;-64
2022/06/14 02:15:23;;;;;;;6.35;5.85;;;;;;;8.48;100.00;102323.84;5247436;28;20055;-64
2022/06/14 02:18:21;;;;;;;7.70;7.00;;;;;;;8.46;100.00;102325.91;5249055;28;20036;-67
2022/06/14 02:21:11;;;;;;;6.53;5.95;;;;;;;8.47;100.00;102322.19;5247210;28;20031;-65
2022/06/14 02:23:54;;;;;;;8.15;7.28;;;;;;;8.39;100.00;102311.63;5247281;28;20031;-65
2022/06/14 02:26:32;;;;;;;7.55;6.95;;;;;;;8.37;100.00;102321.78;5247498;28;20034;-63
2022/06/14 02:29:09;;;;;;;6.15;5.80;;;;;;;8.38;100.00;102326.09;5247242;28;20028;-63
2022/06/14 02:31:42;;;;;;;7.32;6.70;;;;;;;8.32;100.00;102325.09;5247266;28;20033;-64
2022/06/14 02:34:18;;;;;;;5.55;5.25;;;;;;;8.21;100.00;102308.69;5247098;28;20488;-64
2022/06/14 02:36:56;;;;;;;9.13;7.63;;;;;;;8.29;100.00;102314.69;5247272;28;20063;-64
2022/06/14 02:39:33;;;;;;;6.82;6.28;;;;;;;8.26;100.00;102311.59;5246816;28;20035;-64
2022/06/14 02:42:32;;;;;;;5.70;4.93;;;;;;;8.23;100.00;102307.44;5248476;28;20107;-66
2022/06/14 02:45:24;;;;;;;8.57;6.32;;;;;;;8.21;100.00;102308.69;5246650;28;20077;-64
2022/06/14 02:48:21;;;;;;;6.13;5.60;;;;;;;8.18;100.00;102307.22;5246928;28;20028;-65
2022/06/14 02:50:57;;;;;;;8.38;7.55;;;;;;;8.15;100.00;102318.38;5246906;28;20072;-65
2022/06/14 02:53:34;;;;;;;6.47;6.10;;;;;;;7.97;100.00;102292.09;5246875;28;20496;-65
2022/06/14 02:56:16;;;;;;;5.65;5.25;;;;;;;8.14;100.00;102312.19;5246590;28;20455;-63
2022/06/14 02:59:02;;;;;;;5.05;4.43;;;;;;;8.22;100.00;102319.25;5246773;28;20017;-67
2022/06/14 03:01:42;;;;;;;16.95;7.22;;;;;;;8.28;100.00;102313.03;5246336;28;20055;-63
2022/06/14 03:04:19;;;;;;;13.70;6.85;;;;;;;8.39;100.00;102325.06;5245947;28;20106;-65
2022/06/14 03:07:15;;;;;;;6.95;6.55;;;;;;;8.44;100.00;102322.59;5246378;28;20033;-66
2022/06/14 03:09:48;;;;;;;7.28;6.68;;;;;;;8.50;100.00;102320.97;5246608;28;20028;-67
2022/06/14 03:12:38;;;;;;;6.38;5.95;;;;;;;8.51;100.00;102312.66;5246233;28;20105;-65
2022/06/14 03:15:27;;;;;;;;;;;;;;;8.49;100.00;102316.59;5246160;28;20028;-64
2022/06/14 03:18:16;;;;;;;6.65;6.05;;;;;;;8.40;100.00;102313.28;5246008;28;19961;-63
2022/06/14 03:21:02;;;;;;;7.30;6.97;;;;;;;8.38;100.00;102318.88;5245559;28;20547;-65
2022/06/14 03:24:16;;;;;;;12.82;7.03;;;;;;;8.42;100.00;102316.59;5245369;28;20472;-64
2022/06/14 03:26:56;;;;;;;7.43;6.82;;;;;;;8.40;100.00;102327.56;5243682;28;20028;-64
2022/06/14 03:29:37;;;;;;;;;;;;;;;8.31;100.00;102319.88;5245909;28;20060;-65
2022/06/14 03:32:43;;;;;;;6.88;6.40;;;;;;;8.27;100.00;102324.84;5261664;28;20081;-65
2022/06/14 03:35:35;;;;;;;8.23;7.55;;;;;;;8.22;100.00;102323.78;5192070;28;20111;-65
2022/06/14 03:38:32;;;;;;;7.28;6.47;;;;;;;7.94;100.00;102289.81;5245464;28;20047;-65
2022/06/14 03:41:05;;;;;;;10.60;5.95;;;;;;;8.12;100.00;102333.06;5245657;28;20104;-64
2022/06/14 03:43:36;;;;;;;5.95;5.55;;;;;;;8.12;100.00;102334.94;5245043;28;20028;-64
2022/06/14 03:46:12;;;;;;;7.10;6.57;;;;;;;8.13;100.00;102342.81;5245067;28;20536;-64
2022/06/14 03:48:46;;;;;;;9.30;7.63;;;;;;;8.07;100.00;102340.97;5246549;28;20086;-62
2022/06/14 03:51:25;;;;;;;9.85;7.65;;;;;;;7.99;100.00;102314.22;5245444;28;20028;-64
2022/06/14 03:54:13;;;;;;;7.85;7.13;;;;;;;8.10;100.00;102332.44;5245426;28;20029;-65
2022/06/14 03:56:44;;;;;;;8.85;7.75;;;;;;;8.10;100.00;102329.75;5245198;28;20498;-65
2022/06/14 03:59:37;;;;;;;9.10;7.93;;;;;;;8.11;100.00;102334.09;5244796;28;20059;-63
2022/06/14 04:05:24;;;;;;;9.90;8.98;;;;;;;8.19;100.00;102330.41;5246083;28;20541;-64
2022/06/14 04:08:10;;;;;;;7.15;6.70;;;;;;;8.23;100.00;102328.16;5244912;28;20048;-64
2022/06/14 04:10:48;;;;;;;9.07;8.25;;;;;;;8.29;100.00;102321.94;5244848;28;20381;-63
2022/06/14 04:13:26;;;;;;;8.38;7.78;;;;;;;8.33;100.00;102325.91;5246275;28;20423;-63
2022/06/14 04:16:26;;;;;;;9.60;8.18;;;;;;;8.37;100.00;102319.91;5244722;28;20035;-63
2022/06/14 04:19:28;;;;;;;9.18;8.35;;;;;;;8.43;100.00;102320.94;5244332;28;20027;-63
2022/06/14 04:22:24;;;;;;;8.13;7.32;;;;;;;8.51;100.00;102323.44;5244748;28;20032;-63
2022/06/14 04:25:01;;;;;;;9.23;8.40;;;;;;;8.65;100.00;102329.66;5242659;28;20093;-66
2022/06/14 04:27:54;;;;;;;9.68;7.80;;;;;;;9.03;100.00;102321.75;5234643;28;20028;-64
2022/06/14 04:30:36;;;;;;;11.27;9.77;;;;;;;9.45;100.00;102323.94;5243896;28;20060;-62
2022/06/14 04:33:17;;;;;;;9.07;8.38;;;;;;;9.96;100.00;102330.34;5254987;28;20028;-64
2022/06/14 04:35:57;;;;;;;7.97;7.38;;;;;;;10.39;100.00;102317.03;5245579;28;20024;-64
2022/06/14 04:38:51;;;;;;;;;;;;;;;10.82;100.00;102322.47;5244977;28;20024;-63
2022/06/14 04:41:41;;;;;;;9.13;8.02;;;;;;;11.24;100.00;102325.41;5244469;28;19908;-63
2022/06/14 04:44:30;;;;;;;8.40;7.80;;;;;;;11.47;100.00;102320.97;5248983;28;20064;-65
2022/06/14 04:47:07;;;;;;;8.00;7.40;;;;;;;11.86;100.00;102320.69;5248437;28;20062;-64
2022/06/14 04:49:45;;;;;;;16.42;8.27;;;;;;;12.12;100.00;102329.31;5248707;28;20029;-65
2022/06/14 04:52:32;;;;;;;7.25;6.65;;;;;;;12.35;100.00;102338.56;5248677;28;20598;-65
2022/06/14 04:55:05;;;;;;;10.52;7.55;;;;;;;12.41;100.00;102340.34;5248354;28;20060;-70
2022/06/14 04:57:53;;;;;;;7.72;7.05;;;;;;;12.45;100.00;102336.91;5248708;28;20059;-65
2022/06/14 05:00:31;;;;;;;16.30;6.38;;;;;;;12.47;100.00;102331.25;5265597;28;20111;-64
2022/06/14 05:03:19;;;;;;;14.20;8.05;;;;;;;12.49;100.00;102335.38;5249777;28;20169;-64
2022/06/14 05:06:12;;;;;;;11.65;8.77;;;;;;;12.50;100.00;102336.22;5248065;28;20024;-68
2022/06/14 05:09:01;;;;;;;6.22;5.75;;;;;;;12.53;100.00;102335.75;5248582;28;20025;-63
2022/06/14 05:11:39;;;;;;;15.03;8.87;;;;;;;12.52;100.00;102334.09;5248691;28;20491;-63
2022/06/14 05:14:17;;;;;;;13.75;8.00;;;;;;;12.57;100.00;102334.22;5247937;28;20112;-63
2022/06/14 05:17:05;;;;;;;13.38;7.60;;;;;;;12.60;100.00;102339.19;5265770;28;20028;-65
2022/06/14 05:20:08;;;;;;;14.18;7.20;;;;;;;12.62;100.00;102330.81;5248431;28;20108;-63
2022/06/14 05:22:47;;;;;;;11.02;7.57;;;;;;;12.63;100.00;102330.59;5242122;28;20089;-63
2022/06/14 05:25:18;;;;;;;9.45;7.15;;;;;;;12.70;100.00;102336.75;5249340;28;20045;-66
2022/06/14 05:28:03;;;;;;;10.82;8.77;;;;;;;12.79;100.00;102331.78;5246389;28;20021;-64
2022/06/14 05:31:07;;;;;;;8.88;7.50;;;;;;;12.80;100.00;102336.97;5248240;28;20496;-64
2022/06/14 05:33:40;;;;;;;9.63;7.43;;;;;;;12.79;100.00;102340.72;5246735;28;20526;-64
2022/06/14 05:36:27;;;;;;;8.68;7.53;;;;;;;12.76;100.00;102341.19;5245845;28;20081;-64
2022/06/14 05:39:06;;;;;;;11.38;7.22;;;;;;;12.74;100.00;102337.06;5249184;28;20028;-64
2022/06/14 05:41:40;;;;;;;6.35;5.80;;;;;;;12.73;100.00;102341.66;5248008;28;20023;-64
2022/06/14 05:44:22;;;;;;;8.48;7.60;;;;;;;12.71;100.00;102334.81;5247584;28;20060;-64
2022/06/14 05:46:55;;;;;;;9.40;8.50;;;;;;;12.74;100.00;102329.75;5247764;28;20024;-64
2022/06/14 05:49:32;;;;;;;10.15;7.20;;;;;;;12.71;100.00;102321.28;5247492;28;20017;-64
2022/06/14 05:52:07;;;;;;;7.03;6.25;;;;;;;12.81;100.00;102344.03;5247674;28;20111;-65
2022/06/14 05:54:46;;;;;;;10.27;7.93;;;;;;;12.96;100.00;102345.47;5246179;28;20522;-65
2022/06/14 05:57:23;;;;;;;21.83;6.82;;;;;;;13.01;100.00;102340.97;5246969;28;20396;-66
2022/06/14 05:59:56;;;;;;;10.65;5.45;;;;;;;13.20;100.00;102351.75;5247787;28;20481;-65
2022/06/14 06:02:32;;;;;;;6.68;5.47;;;;;;;13.31;100.00;102349.00;5248021;28;20533;-64
2022/06/14 06:05:19;;;;;;;6.93;5.55;;;;;;;13.47;100.00;102350.19;5247428;28;20035;-65
2022/06/14 06:08:00;;;;;;;4.75;4.07;;;;;;;13.48;100.00;102328.22;5247841;28;20025;-68
2022/06/14 06:10:41;;;;;;;6.57;5.47;;;;;;;13.67;100.00;102347.06;5247986;28;20491;-66
2022/06/14 06:13:21;;;;;;;11.70;6.28;;;;;;;13.88;100.00;102338.25;5248235;28;20396;-65
2022/06/14 06:15:57;;;;;;;11.65;5.30;;;;;;;13.94;100.00;102320.97;5248551;28;20158;-65
2022/06/14 06:18:40;;;;;;;9.32;5.38;;;;;;;14.15;100.00;102322.16;5248935;28;20031;-68
2022/06/14 06:21:17;;;;;;;5.20;4.78;;;;;;;14.59;100.00;102346.91;5249007;28;20481;-66
2022/06/14 06:24:15;;;;;;;16.08;5.75;;;;;;;14.87;100.00;102346.81;5246976;28;20116;-64
2022/06/14 06:26:55;;;;;;;10.27;6.40;;;;;;;15.13;100.00;102339.84;5246288;28;20138;-62
2022/06/14 06:29:33;;;;;;;;;;;;;;;15.46;100.00;102347.09;5248463;28;20017;-64
2022/06/14 06:32:06;;;;;;;5.95;5.45;;;;;;;15.76;100.00;102342.06;5250659;28;19917;-63
2022/06/14 06:34:37;;;;;;;9.20;6.40;;;;;;;16.05;100.00;102345.41;5250172;28;20028;-64
2022/06/14 06:37:31;;;;;;;8.68;5.82;;;;;;;16.33;100.00;102338.84;5248256;28;20020;-63
2022/06/14 06:40:12;;;;;;;10.23;5.10;;;;;;;16.51;100.00;102345.81;5250518;28;20040;-65
2022/06/14 06:43:10;;;;;;;6.93;5.78;;;;;;;16.67;100.00;102339.47;5250065;28;20159;-63
2022/06/14 06:45:45;;;;;;;6.13;4.30;;;;;;;16.98;100.00;102350.59;5251632;28;20085;-63
2022/06/14 06:48:23;;;;;;;7.13;4.70;;;;;;;17.09;100.00;102341.38;5250215;28;20103;-64
2022/06/14 06:51:05;;;;;;;4.00;3.60;;;;;;;17.28;100.00;102345.31;5250743;28;20056;-63
2022/06/14 06:53:40;;;;;;;5.57;5.07;;;;;;;17.53;100.00;102342.72;5250087;28;20480;-64
2022/06/14 06:56:15;;;;;;;6.75;4.45;;;;;;;17.74;100.00;102351.03;5250639;28;20093;-63
2022/06/14 06:58:46;;;;;;;10.10;4.97;;;;;;;17.95;100.00;102344.53;5250653;28;20024;-63
2022/06/14 07:01:31;;;;;;;7.55;4.90;;;;;;;18.02;100.00;102344.28;5250419;28;20120;-66
2022/06/14 07:05:23;;;;;;;5.70;4.15;;;;;;;18.10;100.00;102341.84;5249956;28;20492;-65
2022/06/14 07:07:34;;;;;;;3.83;3.53;;;;;;;18.01;100.00;102343.44;5237695;28;20484;-64
2022/06/14 07:10:25;;;;;;;5.10;3.30;;;;;;;18.39;100.00;102333.13;5250439;28;20488;-62
2022/06/14 07:12:56;;;;;;;3.08;2.88;;;;;;;18.45;100.00;102338.34;5250243;28;20037;-64
2022/06/14 07:15:31;;;;;;;3.92;3.65;;;;;;;18.67;98.03;102324.41;5233318;28;20063;-64
2022/06/14 07:18:14;;;;;;;4.85;3.55;;;;;;;18.83;97.65;102334.22;5250492;28;20028;-63
2022/06/14 07:21:09;;;;;;;3.30;2.67;;;;;;;18.71;94.19;102330.97;5251334;28;20136;-63
2022/06/14 07:23:58;;;;;;;6.18;3.83;;;;;;;18.86;93.40;102333.69;5250690;28;20039;-63
2022/06/14 07:26:44;;;;;;;10.07;4.13;;;;;;;18.72;91.75;102338.09;5252712;28;20100;-62
2022/06/14 07:29:31;;;;;;;5.75;3.28;;;;;;;18.64;89.60;102335.88;5252870;28;20476;-61
2022/06/14 07:32:20;;;;;;;7.63;4.13;;;;;;;18.75;93.72;102333.97;5253567;28;20081;-63
2022/06/14 07:34:52;;;;;;;4.10;3.72;;;;;;;18.94;89.81;102334.22;5251952;28;20431;-63
2022/06/14 07:37:32;;;;;;;6.72;2.40;;;;;;;19.06;88.30;102332.81;5253084;28;20025;-63
2022/06/14 07:40:14;;;;;;;3.88;2.95;;;;;;;19.35;90.24;102343.97;5251685;28;20074;-62
2022/06/14 07:43:05;;;;;;;4.35;3.90;;;;;;;19.18;84.13;102338.81;5251861;28;20039;-62
2022/06/14 07:45:39;;;;;;;3.05;2.85;;;;;;;19.23;85.39;102335.25;5252473;28;20115;-63
2022/06/14 07:48:32;;;;;;;7.97;2.97;;;;;;;19.42;86.39;102325.31;5251607;28;20040;-62
2022/06/14 07:51:24;;;;;;;4.22;3.08;;;;;;;19.65;87.10;102328.53;5250511;28;20500;-60
2022/06/14 07:54:38;;;;;;;5.63;3.38;;;;;;;19.35;86.39;102324.78;5251842;28;20050;-62
2022/06/14 07:57:15;;;;;;;5.15;3.50;;;;;;;19.27;84.36;102325.38;5205645;28;20032;-62
2022/06/14 07:59:54;;;;;;;3.15;2.88;;;;;;;19.32;86.45;102324.56;5250109;28;20024;-63
2022/06/14 08:02:37;;;;;;;3.72;2.72;;;;;;;19.32;85.53;102325.38;5248868;28;20083;-62
2022/06/14 08:05:17;;;;;;;6.80;3.45;;;;;;;19.44;88.04;102319.56;5248212;28;20047;-63
2022/06/14 08:07:52;;;;;;;2.00;2.00;;;;;;;19.75;84.44;102321.09;5248960;28;20472;-61
2022/06/14 08:10:35;;;;;;;5.05;3.03;;;;;;;19.70;83.10;102320.28;5247476;28;20373;-62
2022/06/14 08:13:13;;;;;;;4.60;2.80;;;;;;;19.76;83.13;102325.47;5246588;28;20047;-62
2022/06/14 08:15:48;;;;;;;3.25;2.53;;;;;;;19.71;80.90;102317.28;5246607;28;20192;-61
2022/06/14 08:18:28;;;;;;;6.13;3.17;;;;;;;19.73;82.31;102315.06;5246778;28;20397;-62
2022/06/14 08:21:02;;;;;;;3.92;2.70;;;;;;;19.75;81.87;102317.53;5247464;28;20024;-64
2022/06/14 08:23:38;;;;;;;2.47;2.38;;;;;;;19.45;81.70;102308.31;5247945;28;20091;-64
2022/06/14 08:26:11;;;;;;;5.45;2.80;;;;;;;19.20;83.76;102305.69;5247738;28;20024;-63
2022/06/14 08:28:45;;;;;;;3.40;2.40;;;;;;;19.62;82.88;102309.94;5247178;28;20226;-64
2022/06/14 08:31:48;;;;;;;4.20;3.42;;;;;;;19.71;79.98;102316.44;5248727;28;20040;-62
2022/06/14 08:34:30;;;;;;;3.17;2.17;;;;;;;19.41;80.90;102307.22;5243607;28;20048;-62
2022/06/14 08:37:10;;;;;;;3.45;1.98;;;;;;;19.37;78.46;102299.84;5248975;28;20051;-63
2022/06/14 08:39:48;;;;;;;1.58;1.48;;;;;;;19.42;81.23;102305.31;5249655;28;20031;-62
2022/06/14 08:42:31;;;;;;;3.75;3.17;;;;;;;19.32;79.22;102308.94;5251644;28;20021;-64
2022/06/14 08:45:17;;;;;;;2.65;2.55;;;;;;;19.29;79.38;102314.16;5251835;28;20052;-61
2022/06/14 08:48:12;;;;;;;3.95;2.22;;;;;;;19.40;80.51;102310.25;5253711;28;20032;-61
2022/06/14 08:50:57;;;;;;;3.25;2.30;;;;;;;19.37;80.86;102294.38;5232769;28;20477;-62
2022/06/14 08:53:57;;;;;;;3.70;3.05;;;;;;;19.51;79.41;102301.75;5231359;28;20088;-62
2022/06/14 08:57:06;;;;;;;1.88;1.83;;;;;;;19.64;78.31;102299.47;5231511;28;20021;-62
2022/06/14 09:00:00;;;;;;;2.63;2.45;;;;;;;19.89;80.39;102300.19;5245599;28;20485;-63
2022/06/14 09:02:46;;;;;;;6.20;2.50;;;;;;;19.89;78.00;102296.63;5231657;28;20036;-63
2022/06/14 09:05:19;;;;;;;2.72;2.53;;;;;;;20.17;83.73;102287.66;5231512;28;20040;-61
2022/06/14 09:08:27;;;;;;;6.25;2.80;;;;;;;20.58;81.56;102292.00;5230961;28;20132;-62
2022/06/14 09:11:23;;;;;;;3.97;2.72;;;;;;;20.97;79.48;102289.16;5230432;28;20044;-62
2022/06/14 09:14:12;;;;;;;3.63;2.83;;;;;;;20.76;74.90;102289.38;5231223;28;20125;-63
2022/06/14 09:17:12;;;;;;;4.75;2.47;;;;;;;20.32;74.35;102285.88;5232246;28;20361;-62
2022/06/14 09:19:58;;;;;;;3.15;2.85;;;;;;;20.22;74.38;102284.84;5219387;28;20379;-62
2022/06/14 09:22:54;;;;;;;3.47;2.63;;;;;;;20.26;77.20;102285.09;5229137;28;20037;-61
2022/06/14 09:25:34;;;;;;;2.70;1.92;;;;;;;20.46;74.96;102284.97;5243209;28;20108;-62
2022/06/14 09:28:04;;;;;;;2.47;2.28;;;;;;;20.28;75.13;102271.09;5228946;28;20037;-63
2022/06/14 09:31:01;;;;;;;2.60;2.40;;;;;;;20.47;72.62;102274.81;5233475;28;20431;-62
2022/06/14 09:33:51;;;;;;;2.53;2.33;;;;;;;20.07;72.55;102252.06;5249748;28;20021;-63
2022/06/14 09:36:46;;;;;;;4.72;2.72;;;;;;;20.04;74.08;102274.56;5232826;28;20115;-63
2022/06/14 09:39:35;;;;;;;3.47;3.03;;;;;;;20.52;78.06;102267.34;5233671;28;20500;-63
2022/06/14 09:42:18;;;;;;;2.78;2.60;;;;;;;20.39;72.17;102267.19;5231213;28;20036;-63
2022/06/14 09:45:21;;;;;;;5.32;2.40;;;;;;;20.45;73.59;102263.31;5231999;28;20037;-62
2022/06/14 09:48:29;;;;;;;10.07;3.22;;;;;;;20.73;74.34;102267.97;5232177;28;20104;-67
2022/06/14 09:51:18;;;;;;;2.60;2.38;;;;;;;20.86;76.28;102259.03;5232098;28;20054;-62
2022/06/14 09:54:17;;;;;;;3.15;2.80;;;;;;;20.76;72.02;102253.69;5228880;28;20028;-63
2022/06/14 09:57:24;;;;;;;4.30;2.28;;;;;;;20.46;72.80;102256.72;5229448;28;20140;-63
2022/06/14 10:00:26;;;;;;;6.72;2.30;;;;;;;20.66;75.88;102250.19;5218002;28;20036;-62
2022/06/14 10:03:02;;;;;;;2.53;2.05;;;;;;;20.80;74.27;102245.66;5230290;28;20123;-62
2022/06/14 10:06:03;;;;;;;3.78;2.70;;;;;;;20.70;74.22;102241.09;5232288;28;20526;-63
2022/06/14 10:09:11;;;;;;;8.10;2.92;;;;;;;20.85;71.93;102237.34;5231359;28;20056;-62
2022/06/14 10:12:26;;;;;;;3.22;1.77;;;;;;;21.27;75.74;102228.38;5230960;28;20107;-62
2022/06/14 10:15:09;;;;;;;2.72;2.63;;;;;;;21.38;72.04;102227.09;5222064;28;20054;-62
2022/06/14 10:18:01;;;;;;;4.75;4.43;;;;;;;21.42;75.02;102225.41;5232535;28;20025;-63
2022/06/14 10:20:31;;;;;;;3.22;3.03;;;;;;;21.48;71.71;102218.72;5230652;28;20051;-63
2022/06/14 10:23:43;;;;;;;2.50;2.35;;;;;;;21.51;71.63;102217.31;5231275;28;20032;-63
2022/06/14 10:30:00;;;;;;;2.08;1.98;;;;;;;21.40;73.67;102211.13;5232860;28;20064;-61
2022/06/14 10:32:36;;;;;;;2.63;2.53;;;;;;;21.40;69.58;102211.13;5230104;28;20065;-61
2022/06/14 10:35:19;;;;;;;13.07;3.22;;;;;;;21.33;69.84;102209.91;5229272;28;20021;-61
2022/06/14 10:37:58;;;;;;;3.60;2.47;;;;;;;21.06;70.16;102216.00;5231324;28;20036;-62
2022/06/14 10:40:54;;;;;;;2.70;2.50;;;;;;;20.72;70.11;102211.44;5228655;28;20394;-63
2022/06/14 10:43:27;;;;;;;2.38;2.17;;;;;;;21.01;75.38;102207.81;5229780;28;20104;-62
2022/06/14 10:46:06;;;;;;;2.30;2.10;;;;;;;20.96;71.12;102199.63;5227508;28;20041;-62
2022/06/14 10:48:58;;;;;;;4.57;3.47;;;;;;;21.01;70.94;102199.56;5229779;28;20163;-63
2022/06/14 10:51:44;;;;;;;2.78;2.53;;;;;;;21.40;71.69;102191.91;5228755;28;20111;-62
2022/06/14 10:54:24;;;;;;;4.55;4.28;;;;;;;21.15;69.65;102194.97;5229734;28;20455;-62
2022/06/14 10:57:16;;;;;;;6.75;2.55;;;;;;;21.04;71.02;102186.06;5229076;28;20074;-63
2022/06/14 11:00:10;;;;;;;2.92;2.72;;;;;;;21.20;70.67;102189.41;5228487;28;20051;-62
2022/06/14 11:03:02;;;;;;;2.95;2.30;;;;;;;21.05;71.70;102184.13;5229988;28;20053;-62
2022/06/14 11:05:59;;;;;;;3.60;3.15;;;;;;;21.23;74.01;102183.38;5228415;28;20025;-63
2022/06/14 11:08:54;;;;;;;8.13;3.17;;;;;;;21.67;74.00;102176.66;5221331;28;20413;-63
2022/06/14 11:11:30;;;;;;;1.95;1.85;;;;;;;22.13;72.73;102174.84;5227675;28;20087;-63
2022/06/14 11:14:20;;;;;;;6.35;2.78;;;;;;;22.17;69.04;102161.28;5227191;28;20028;-63
2022/06/14 11:16:54;;;;;;;5.15;3.08;;;;;;;22.36;68.92;102162.03;5227404;28;20041;-63
2022/06/14 11:19:31;;;;;;;4.97;3.15;;;;;;;22.13;68.27;102163.84;5227243;28;20439;-63
2022/06/14 11:22:35;;;;;;;3.10;2.53;;;;;;;21.88;67.87;102158.75;5226794;28;20039;-63
2022/06/14 11:25:27;;;;;;;4.07;3.72;;;;;;;21.91;67.72;102160.91;5242725;28;20032;-63
2022/06/14 11:28:13;;;;;;;2.95;2.75;;;;;;;21.97;68.01;102156.09;5227260;28;20029;-62
2022/06/14 11:30:59;;;;;;;3.47;3.22;;;;;;;21.95;67.71;102145.41;5226536;28;20021;-63
2022/06/14 11:33:30;;;;;;;4.38;3.42;;;;;;;22.11;68.40;102148.75;5226578;28;20040;-63
2022/06/14 11:36:22;;;;;;;2.38;2.28;;;;;;;22.06;66.81;102135.06;5226503;28;20024;-63
2022/06/14 11:39:02;;;;;;;3.63;3.42;;;;;;;22.04;66.49;102143.63;5226178;28;20123;-62
2022/06/14 11:41:42;;;;;;;2.90;2.70;;;;;;;21.85;66.33;102137.34;5241743;28;20028;-63
2022/06/14 11:44:31;;;;;;;3.33;2.85;;;;;;;21.77;66.71;102132.50;5226220;28;20067;-62
2022/06/14 11:47:29;;;;;;;3.05;2.85;;;;;;;21.80;66.22;102134.66;5225865;28;20124;-63
2022/06/14 11:50:09;;;;;;;2.90;2.70;;;;;;;21.72;66.99;102136.16;5226217;28;20482;-63
2022/06/14 11:53:00;;;;;;;;;;;;;;;21.69;67.88;102134.00;5225619;28;20028;-61
2022/06/14 11:55:36;;;;;;;8.65;2.72;;;;;;;21.90;67.96;102131.75;5241741;28;20417;-63
2022/06/14 11:58:27;;;;;;;2.63;2.30;;;;;;;21.96;68.05;102125.03;5242604;28;20374;-63
2022/06/14 12:01:15;;;;;;;5.65;3.20;;;;;;;22.08;69.19;102122.66;5226753;28;20058;-62
2022/06/14 12:04:03;;;;;;;6.40;2.47;;;;;;;22.23;69.67;102127.06;5226459;28;20040;-62
2022/06/14 12:06:47;;;;;;;9.05;3.17;;;;;;;22.46;66.38;102122.50;5243159;28;20036;-61
2022/06/14 12:09:42;;;;;;;5.43;4.05;;;;;;;22.45;66.69;102126.38;5243601;28;20025;-68
2022/06/14 12:12:54;;;;;;;3.15;2.95;;;;;;;22.87;69.53;102116.97;5226036;28;20039;-63
2022/06/14 12:15:54;;;;;;;2.08;1.90;;;;;;;22.94;65.08;102125.63;5241936;28;20413;-63
2022/06/14 12:18:29;;;;;;;4.40;3.65;;;;;;;22.31;64.98;102118.09;5235274;28;20037;-62
2022/06/14 12:21:26;;;;;;;5.78;3.60;;;;;;;22.28;66.04;102123.38;5243321;28;20103;-62
2022/06/14 12:24:03;;;;;;;2.58;2.47;;;;;;;22.54;65.93;102094.22;5225738;28;20568;-62
2022/06/14 12:26:43;;;;;;;2.58;2.47;;;;;;;22.98;63.65;102117.56;5226220;28;20044;-62
2022/06/14 12:29:22;;;;;;;2.10;2.05;;;;;;;22.92;67.96;102110.53;5243490;28;20443;-62
2022/06/14 12:32:09;;;;;;;3.95;2.85;;;;;;;23.11;62.75;102111.19;5226819;28;20481;-62
2022/06/14 12:35:00;;;;;;;4.43;2.60;;;;;;;22.83;63.06;102115.94;5226520;28;20041;-62
2022/06/14 12:37:43;;;;;;;2.85;2.40;;;;;;;22.47;62.18;102104.84;5227322;28;20122;-63
2022/06/14 12:40:19;;;;;;;3.50;2.50;;;;;;;22.41;61.96;102106.88;5227095;28;20082;-62
2022/06/14 12:43:11;;;;;;;3.72;2.88;;;;;;;23.02;64.33;102102.06;5226935;28;20225;-62
2022/06/14 12:45:53;;;;;;;8.82;3.38;;;;;;;23.38;64.60;102089.09;5224844;28;20063;-62
2022/06/14 12:48:49;;;;;;;2.83;2.38;;;;;;;24.01;64.13;102085.28;5226360;28;20110;-62
2022/06/14 12:51:26;;;;;;;2.85;2.17;;;;;;;23.67;58.81;102085.09;5225057;28;20032;-67
2022/06/14 12:54:04;;;;;;;2.78;2.58;;;;;;;23.58;60.49;102085.03;5225214;28;20025;-62
2022/06/14 12:56:55;;;;;;;5.28;2.67;;;;;;;23.69;58.94;102083.63;5226635;28;20048;-62